Port Angeles, WA

4:12 PM PST on January 20, 2017 (GMT -0800)
Fairchild International | | Change Station
Active Advisory: Small Craft Advisory

Elev 289 ft 48.12 °N, 123.50 °W | Updated 19 minutes ago

Partly Cloudy
Partly Cloudy
45 °F
Feels Like 44 °F
N
4
Wind Variable Wind from NNW

Today
High -- | Low -- °F
--% Chance of Precip.
Yesterday
High -- | Low -- °F
Precip. -- in
Pressure 29.11 in
Visibility 10.0 miles
Clouds Clear
Windchill 44 °F
Dew Point 39 °F
Humidity 80%
Rainfall 0.00 in
Snow Depth Not available.
7:55 AM 4:55 PM
Last Quarter, 40% visible
METAR KCLM 202353Z AUTO 33003KT 10SM CLR 07/04 A2910 RMK AO2 SLP857 T00720039 10078 20033 56003
Pressure 29.11 in
Visibility 10.0 miles
Clouds Clear
Windchill 44 °F
Dew Point 39 °F
Humidity 80%
Rainfall 0.00 in
Snow Depth Not available.
7:55 AM 4:55 PM
Last Quarter, 40% visible
METAR KCLM 202353Z AUTO 33003KT 10SM CLR 07/04 A2910 RMK AO2 SLP857 T00720039 10078 20033 56003

Get Your Daily Forecast Email!

Thanks for signing up!

Be on the lookout for a verification email in your inbox.

You'll start receiving the daily forecast at 8 AM.

×

10-Day Weather Forecast

Almanac

Astronomy

Jan. 20, 2017 Rise Set
Actual Time
Civil Twilight
Nautical Twilight
Astronomical Twilight
Moon
Length of Visible Light
Length of Day
Tomorrow will be .
, % of the Moon is Illuminated

Today's Extremes

State Highs State Lows

Community

WunderPhotos

Upload Photos

1,962,540 photos uploaded!

WunderBlog® & News

Nearby

Air Quality

  Air Quality AQ Index Pollutant
Not available.

Snow Depth

Station Depth Elevation

Earthquake Activity

City Distance Mag. Time & Date
Minimum magnitude displayed is 2.5.

Coastal Water Temperatures

Place Temperature

Stations

Nearby Weather Stations

Station Location Temp. Windchill Dew Point Humidity Wind Precip. Elev Updated Type
                   

Watches & Warnings

Small Craft Advisory
Issued: 2:52 PM PST Jan. 20, 2017 – National Weather Service

... Small Craft Advisory now in effect until 4 PM PST Saturday...

* winds... east to southeast 15 to 30 knots.

Precautionary/preparedness actions...

A Small Craft Advisory means that wind speeds of 21 to 33 knots are
expected to produce hazardous wave conditions to small craft.
Inexperienced mariners... especially those operating smaller vessels
should avoid navigating in these conditions.